Time;durP1;ratioP1;P1;durP2;ratioP2;P2;SDS_P1;SDS_P2;PMS_P1;PMS_P2;Temp;Humidity;BMP_temperature;BMP_pressure;BME280_temperature;BME280_humidity;BME280_pressure;Samples;Min_cycle;Max_cycle;Signal;HPM_P1;HPM_P2
2024/02/03 00:00:00;;;;;;;10.20;2.28;;;;;;;;;;5015842;28;20041;-67
2024/02/03 00:02:25;;;;;;;8.52;2.53;;;;;;;;;;4996809;28;20440;-70
2024/02/03 00:04:50;;;;;;;4.07;2.05;;;;;;;;;;5021714;28;20099;-70
2024/02/03 00:07:16;;;;;;;7.43;2.17;;;;;;;;;;5010259;28;20101;-70
2024/02/03 00:09:42;;;;;;;9.00;2.97;;;;;;;;;;5015872;28;20041;-69
2024/02/03 00:12:08;;;;;;;9.65;2.75;;;;;;;;;;5020898;28;20038;-69
2024/02/03 00:14:34;;;;;;;11.43;3.38;;;;;;;;;;5018203;28;20520;-67
2024/02/03 00:16:59;;;;;;;11.23;2.92;;;;;;;;;;5023251;28;20053;-67
2024/02/03 00:19:25;;;;;;;12.73;3.92;;;;;;;;;;5019765;28;20042;-68
2024/02/03 00:21:50;;;;;;;7.85;2.88;;;;;;;;;;5020908;28;20123;-68
2024/02/03 00:24:15;;;;;;;7.45;2.85;;;;;;;;;;5014475;28;20050;-67
2024/02/03 00:26:41;;;;;;;13.23;3.20;;;;;;;;;;5015879;28;20030;-67
2024/02/03 00:29:06;;;;;;;7.78;2.72;;;;;;;;;;5018122;28;20447;-67
2024/02/03 00:31:32;;;;;;;11.25;2.75;;;;;;;;;;5017111;28;20381;-67
2024/02/03 00:33:57;;;;;;;10.77;3.30;;;;;;;;;;5016887;28;20095;-69
2024/02/03 00:36:24;;;;;;;9.07;3.10;;;;;;;;;;5016403;28;20417;-67
2024/02/03 00:38:49;;;;;;;8.98;2.88;;;;;;;;;;5019007;28;20042;-68
2024/02/03 00:41:14;;;;;;;15.68;3.00;;;;;;;;;;5017958;28;20040;-68
2024/02/03 00:43:40;;;;;;;11.43;2.72;;;;;;;;;;5011827;28;20492;-68
2024/02/03 00:46:05;;;;;;;12.68;2.90;;;;;;;;;;5021158;28;20049;-68
2024/02/03 00:48:30;;;;;;;6.43;2.30;;;;;;;;;;5028168;28;20030;-67
2024/02/03 00:50:56;;;;;;;4.85;2.55;;;;;;;;;;5024834;28;20045;-69
2024/02/03 00:53:21;;;;;;;7.32;2.40;;;;;;;;;;5029359;28;20046;-67
2024/02/03 00:55:46;;;;;;;8.82;3.20;;;;;;;;;;5020012;28;20041;-67
2024/02/03 00:58:12;;;;;;;8.43;2.90;;;;;;;;;;5024942;28;20033;-67
2024/02/03 01:00:37;;;;;;;8.30;2.70;;;;;;;;;;5015798;28;20042;-68
2024/02/03 01:03:03;;;;;;;12.07;3.63;;;;;;;;;;5020219;28;20078;-67
2024/02/03 01:05:28;;;;;;;7.18;3.08;;;;;;;;;;5018192;28;20067;-68
2024/02/03 01:07:54;;;;;;;8.57;3.13;;;;;;;;;;5026553;28;20044;-67
2024/02/03 01:10:19;;;;;;;14.43;2.80;;;;;;;;;;5022143;28;20037;-69
2024/02/03 01:12:44;;;;;;;10.20;3.05;;;;;;;;;;5027019;28;20030;-68
2024/02/03 01:15:10;;;;;;;8.95;2.88;;;;;;;;;;5014998;28;20100;-68
2024/02/03 01:17:35;;;;;;;10.80;3.03;;;;;;;;;;5026842;28;20049;-67
2024/02/03 01:20:01;;;;;;;13.15;2.92;;;;;;;;;;5014938;28;20034;-68
2024/02/03 01:22:27;;;;;;;7.95;2.63;;;;;;;;;;5028571;28;20074;-68
2024/02/03 01:24:52;;;;;;;6.00;2.50;;;;;;;;;;5015273;28;20429;-68
2024/02/03 01:27:17;;;;;;;10.02;3.03;;;;;;;;;;5029377;28;20041;-68
2024/02/03 01:29:43;;;;;;;9.45;2.75;;;;;;;;;;5026448;28;20037;-68
2024/02/03 01:32:08;;;;;;;9.90;2.75;;;;;;;;;;5025053;28;20033;-68
2024/02/03 01:34:34;;;;;;;5.15;2.22;;;;;;;;;;5010526;28;20037;-67
2024/02/03 01:36:59;;;;;;;9.23;2.45;;;;;;;;;;5015812;28;20036;-68
2024/02/03 01:39:25;;;;;;;8.77;2.80;;;;;;;;;;5018542;28;20029;-68
2024/02/03 01:41:50;;;;;;;9.68;2.60;;;;;;;;;;5018187;28;20461;-68
2024/02/03 01:44:15;;;;;;;9.15;3.13;;;;;;;;;;5008463;28;20041;-67
2024/02/03 01:46:41;;;;;;;9.43;3.22;;;;;;;;;;5019706;28;20430;-67
2024/02/03 01:49:06;;;;;;;15.60;3.00;;;;;;;;;;5000877;28;20053;-68
2024/02/03 01:51:33;;;;;;;14.88;3.47;;;;;;;;;;5004298;28;20046;-69
2024/02/03 01:53:59;;;;;;;10.57;3.08;;;;;;;;;;4997596;28;20030;-68
2024/02/03 01:56:25;;;;;;;12.30;3.47;;;;;;;;;;5018905;28;20043;-67
2024/02/03 01:58:51;;;;;;;10.57;2.78;;;;;;;;;;5020435;28;20046;-67
2024/02/03 02:01:17;;;;;;;11.63;2.70;;;;;;;;;;5018807;28;20527;-67
2024/02/03 02:03:43;;;;;;;14.40;3.28;;;;;;;;;;5004510;28;20049;-69
2024/02/03 02:06:09;;;;;;;13.40;2.97;;;;;;;;;;4993592;28;20064;-67
2024/02/03 02:08:38;;;;;;;10.43;3.28;;;;;;;;;;5025592;28;20026;-67
2024/02/03 02:11:05;;;;;;;14.70;3.28;;;;;;;;;;5000734;28;20095;-67
2024/02/03 02:13:31;;;;;;;12.98;3.67;;;;;;;;;;5002794;28;20042;-67
2024/02/03 02:15:56;;;;;;;11.35;3.25;;;;;;;;;;5024152;28;20046;-67
2024/02/03 02:18:23;;;;;;;12.90;3.10;;;;;;;;;;5014603;28;20150;-69
2024/02/03 02:20:49;;;;;;;10.70;2.75;;;;;;;;;;5010236;28;20073;-67
2024/02/03 02:23:14;;;;;;;14.43;3.50;;;;;;;;;;5029464;28;20064;-68
2024/02/03 02:25:39;;;;;;;12.70;3.50;;;;;;;;;;5024796;28;20040;-67
2024/02/03 02:28:05;;;;;;;11.82;3.30;;;;;;;;;;5029230;28;20045;-68
2024/02/03 02:30:30;;;;;;;8.90;3.20;;;;;;;;;;5016149;28;20026;-68
2024/02/03 02:32:58;;;;;;;9.82;3.75;;;;;;;;;;5026090;28;20499;-66
2024/02/03 02:35:23;;;;;;;11.40;3.67;;;;;;;;;;5001515;28;20366;-68
2024/02/03 02:37:48;;;;;;;11.65;3.00;;;;;;;;;;5020924;28;20040;-67
2024/02/03 02:40:14;;;;;;;10.13;3.25;;;;;;;;;;5017639;28;20418;-68
2024/02/03 02:42:39;;;;;;;12.07;3.60;;;;;;;;;;5014483;28;20129;-67
2024/02/03 02:45:04;;;;;;;10.98;3.45;;;;;;;;;;5009678;28;20480;-67
2024/02/03 02:47:30;;;;;;;16.20;3.45;;;;;;;;;;5015002;28;20523;-67
2024/02/03 02:49:55;;;;;;;10.55;3.50;;;;;;;;;;5014508;28;20037;-67
2024/02/03 02:52:21;;;;;;;13.95;3.42;;;;;;;;;;5018237;28;20751;-68
2024/02/03 02:54:46;;;;;;;11.55;3.30;;;;;;;;;;5016176;28;20117;-67
2024/02/03 02:57:11;;;;;;;10.65;3.08;;;;;;;;;;5013487;28;20108;-68
2024/02/03 02:59:37;;;;;;;5.75;2.55;;;;;;;;;;5009855;28;20092;-67
2024/02/03 03:02:02;;;;;;;13.13;3.42;;;;;;;;;;5018448;28;20072;-67
2024/02/03 03:04:28;;;;;;;13.93;3.28;;;;;;;;;;5013402;28;20069;-66
2024/02/03 03:06:54;;;;;;;14.18;3.20;;;;;;;;;;5017962;28;20037;-67
2024/02/03 03:09:19;;;;;;;11.68;2.97;;;;;;;;;;5014427;28;20382;-67
2024/02/03 03:11:44;;;;;;;8.15;2.60;;;;;;;;;;5000946;28;20474;-67
2024/02/03 03:14:10;;;;;;;12.48;2.72;;;;;;;;;;5018848;28;20044;-67
2024/02/03 03:16:35;;;;;;;6.65;2.75;;;;;;;;;;5025954;28;20057;-67
2024/02/03 03:19:01;;;;;;;5.97;2.45;;;;;;;;;;5018611;28;20638;-67
2024/02/03 03:21:26;;;;;;;10.02;2.63;;;;;;;;;;5018786;28;20059;-67
2024/02/03 03:23:51;;;;;;;13.68;3.80;;;;;;;;;;5025739;28;20045;-67
2024/02/03 03:26:17;;;;;;;10.57;2.63;;;;;;;;;;5017624;28;20067;-67
2024/02/03 03:28:42;;;;;;;11.05;2.25;;;;;;;;;;5018881;28;20072;-67
2024/02/03 03:31:07;;;;;;;3.97;1.30;;;;;;;;;;4997326;28;20500;-67
2024/02/03 03:33:32;;;;;;;3.50;1.13;;;;;;;;;;5006852;28;20040;-67
2024/02/03 03:35:58;;;;;;;5.72;1.23;;;;;;;;;;5018270;28;20074;-67
2024/02/03 03:38:23;;;;;;;5.32;1.10;;;;;;;;;;5000156;28;20196;-68
2024/02/03 03:40:49;;;;;;;2.85;1.00;;;;;;;;;;5013968;28;20132;-67
2024/02/03 03:43:14;;;;;;;5.03;1.27;;;;;;;;;;5026594;28;20034;-68
2024/02/03 03:45:40;;;;;;;2.85;0.90;;;;;;;;;;5023803;28;20041;-67
2024/02/03 03:48:06;;;;;;;2.10;0.88;;;;;;;;;;5026537;28;20054;-67
2024/02/03 03:50:31;;;;;;;1.70;0.70;;;;;;;;;;5001389;28;20048;-67
2024/02/03 03:52:56;;;;;;;1.45;0.73;;;;;;;;;;5022373;28;20559;-68
2024/02/03 03:55:22;;;;;;;3.53;0.82;;;;;;;;;;5007980;28;20528;-67
2024/02/03 03:57:47;;;;;;;2.10;0.77;;;;;;;;;;5017624;28;20084;-67
2024/02/03 04:00:13;;;;;;;1.05;0.60;;;;;;;;;;5011107;28;20065;-68
2024/02/03 04:02:39;;;;;;;2.25;0.80;;;;;;;;;;5025457;28;20033;-67
2024/02/03 04:05:05;;;;;;;5.70;0.82;;;;;;;;;;5017079;28;20084;-69
2024/02/03 04:07:31;;;;;;;2.30;0.75;;;;;;;;;;5014853;28;20041;-68
2024/02/03 04:09:56;;;;;;;2.47;0.80;;;;;;;;;;5018312;28;20477;-68
2024/02/03 04:12:21;;;;;;;1.95;0.77;;;;;;;;;;5025457;28;20041;-69
2024/02/03 04:14:47;;;;;;;2.67;1.27;;;;;;;;;;5016510;28;20133;-69
2024/02/03 04:17:15;;;;;;;1.58;0.70;;;;;;;;;;5021776;28;20045;-69
2024/02/03 04:19:41;;;;;;;2.90;0.93;;;;;;;;;;5015068;28;20041;-69
2024/02/03 04:22:07;;;;;;;2.60;1.08;;;;;;;;;;5020632;28;20057;-69
2024/02/03 04:24:33;;;;;;;4.68;1.20;;;;;;;;;;5012569;28;20034;-70
2024/02/03 04:26:58;;;;;;;2.35;0.90;;;;;;;;;;5015815;28;20103;-70
2024/02/03 04:29:24;;;;;;;1.80;0.80;;;;;;;;;;5011597;28;20647;-69
2024/02/03 04:31:49;;;;;;;5.47;0.95;;;;;;;;;;5012847;28;20462;-69
2024/02/03 04:34:18;;;;;;;2.38;0.90;;;;;;;;;;5023624;28;20049;-70
2024/02/03 04:36:43;;;;;;;1.90;0.93;;;;;;;;;;5016948;28;20040;-69
2024/02/03 04:39:08;;;;;;;3.25;1.10;;;;;;;;;;5025889;28;20037;-70
2024/02/03 04:41:34;;;;;;;1.65;0.80;;;;;;;;;;5013937;28;20057;-70
2024/02/03 04:43:59;;;;;;;3.25;1.23;;;;;;;;;;5025035;28;20120;-67
2024/02/03 04:46:24;;;;;;;4.25;0.90;;;;;;;;;;5021818;28;20080;-67
2024/02/03 04:48:50;;;;;;;2.47;0.75;;;;;;;;;;5014315;28;20543;-68
2024/02/03 04:51:15;;;;;;;2.42;1.08;;;;;;;;;;5018269;28;20435;-67
2024/02/03 04:53:41;;;;;;;5.70;1.30;;;;;;;;;;5020035;28;20452;-68
2024/02/03 04:56:06;;;;;;;3.25;1.00;;;;;;;;;;5016139;28;20072;-68
2024/02/03 04:58:32;;;;;;;2.80;0.90;;;;;;;;;;5022791;28;20037;-67
2024/02/03 05:00:57;;;;;;;5.35;1.20;;;;;;;;;;5016359;28;20038;-68
2024/02/03 05:03:23;;;;;;;6.15;1.50;;;;;;;;;;5014886;28;20106;-68
2024/02/03 05:05:48;;;;;;;2.70;1.55;;;;;;;;;;5013909;28;20049;-68
2024/02/03 05:08:13;;;;;;;14.35;2.38;;;;;;;;;;5014587;28;20038;-68
2024/02/03 05:10:39;;;;;;;4.68;1.92;;;;;;;;;;5019269;28;20069;-67
2024/02/03 05:13:04;;;;;;;8.52;2.10;;;;;;;;;;5024124;28;20057;-68
2024/02/03 05:15:29;;;;;;;4.00;1.77;;;;;;;;;;5013631;28;20626;-68
2024/02/03 05:17:55;;;;;;;7.28;2.22;;;;;;;;;;5015408;28;20470;-67
2024/02/03 05:20:20;;;;;;;4.53;2.28;;;;;;;;;;5010941;28;20073;-67
2024/02/03 05:22:47;;;;;;;8.30;2.40;;;;;;;;;;5021384;28;20041;-68
2024/02/03 05:25:14;;;;;;;6.93;2.55;;;;;;;;;;5019916;28;20048;-67
2024/02/03 05:27:40;;;;;;;6.53;2.45;;;;;;;;;;5018196;28;20038;-68
2024/02/03 05:30:06;;;;;;;7.50;2.15;;;;;;;;;;5014621;28;20048;-67
2024/02/03 05:32:31;;;;;;;8.73;2.70;;;;;;;;;;5021234;28;20025;-68
2024/02/03 05:34:56;;;;;;;5.60;2.70;;;;;;;;;;5017735;28;20084;-67
2024/02/03 05:37:22;;;;;;;10.02;2.38;;;;;;;;;;5028947;28;20539;-67
2024/02/03 05:39:47;;;;;;;7.80;3.53;;;;;;;;;;5015046;28;20470;-67
2024/02/03 05:42:12;;;;;;;6.15;2.47;;;;;;;;;;5016076;28;20041;-67
2024/02/03 05:44:38;;;;;;;9.55;2.97;;;;;;;;;;5015111;28;20113;-67
2024/02/03 05:47:03;;;;;;;5.63;2.22;;;;;;;;;;5020088;28;20052;-67
2024/02/03 05:49:28;;;;;;;3.38;1.67;;;;;;;;;;5004205;28;20048;-68
2024/02/03 05:51:54;;;;;;;3.50;1.73;;;;;;;;;;5023370;28;20064;-66
2024/02/03 05:54:19;;;;;;;3.50;2.08;;;;;;;;;;5018485;28;20057;-67
2024/02/03 05:56:45;;;;;;;8.50;2.28;;;;;;;;;;5020116;28;20120;-67
2024/02/03 05:59:10;;;;;;;3.75;1.60;;;;;;;;;;5017267;28;20041;-67
2024/02/03 06:01:36;;;;;;;6.90;2.05;;;;;;;;;;5016230;28;20037;-67
2024/02/03 06:04:04;;;;;;;3.80;1.80;;;;;;;;;;5017463;28;20086;-67
2024/02/03 06:06:30;;;;;;;4.70;2.00;;;;;;;;;;5014231;28;20042;-68
2024/02/03 06:08:55;;;;;;;5.22;1.63;;;;;;;;;;5021256;28;20036;-68
2024/02/03 06:11:21;;;;;;;3.30;2.08;;;;;;;;;;5016676;28;20073;-67
2024/02/03 06:13:46;;;;;;;3.80;1.52;;;;;;;;;;5015756;28;20042;-68
2024/02/03 06:16:11;;;;;;;4.28;1.75;;;;;;;;;;5022880;28;20038;-67
2024/02/03 06:18:37;;;;;;;7.35;2.00;;;;;;;;;;5013028;28;20053;-68
2024/02/03 06:21:02;;;;;;;6.43;1.80;;;;;;;;;;5014808;28;20084;-68
2024/02/03 06:23:28;;;;;;;5.22;1.70;;;;;;;;;;5016625;28;20077;-68
2024/02/03 06:25:54;;;;;;;10.80;1.73;;;;;;;;;;5020606;28;20042;-68
2024/02/03 06:28:19;;;;;;;6.00;2.22;;;;;;;;;;5028272;28;20504;-68
2024/02/03 06:30:45;;;;;;;5.88;1.92;;;;;;;;;;5022619;28;20042;-67
2024/02/03 06:33:10;;;;;;;4.32;2.15;;;;;;;;;;5027474;28;20047;-68
2024/02/03 06:35:36;;;;;;;9.70;2.10;;;;;;;;;;5010738;28;20401;-68
2024/02/03 06:38:01;;;;;;;5.22;1.95;;;;;;;;;;5028154;28;20053;-67
2024/02/03 06:40:26;;;;;;;7.60;2.83;;;;;;;;;;4998247;28;20120;-67
2024/02/03 06:42:53;;;;;;;11.20;2.22;;;;;;;;;;5017810;28;20034;-67
2024/02/03 06:45:19;;;;;;;5.47;1.90;;;;;;;;;;5015235;28;20038;-67
2024/02/03 06:47:45;;;;;;;11.27;1.70;;;;;;;;;;5012424;28;20587;-68
2024/02/03 06:50:11;;;;;;;6.03;1.65;;;;;;;;;;5012892;28;20034;-68
2024/02/03 06:52:37;;;;;;;2.30;1.10;;;;;;;;;;5012690;28;20030;-67
2024/02/03 06:55:03;;;;;;;4.00;1.95;;;;;;;;;;5012142;28;20546;-67
2024/02/03 06:57:28;;;;;;;3.63;1.65;;;;;;;;;;5025458;28;20034;-67
2024/02/03 06:59:53;;;;;;;8.70;1.92;;;;;;;;;;5014426;28;20366;-67
2024/02/03 07:02:19;;;;;;;6.38;1.90;;;;;;;;;;5022800;28;20405;-69
2024/02/03 07:04:44;;;;;;;3.42;1.65;;;;;;;;;;5017133;28;20033;-69
2024/02/03 07:07:09;;;;;;;4.53;1.50;;;;;;;;;;5015952;28;20040;-70
2024/02/03 07:09:35;;;;;;;4.60;1.70;;;;;;;;;;5006123;28;20038;-70
2024/02/03 07:12:01;;;;;;;3.75;1.60;;;;;;;;;;5015087;28;20042;-69
2024/02/03 07:14:26;;;;;;;6.63;1.88;;;;;;;;;;5012744;28;20026;-70
2024/02/03 07:16:52;;;;;;;3.17;1.42;;;;;;;;;;5013444;28;20050;-69
2024/02/03 07:19:17;;;;;;;2.95;1.33;;;;;;;;;;5011780;28;20041;-70
2024/02/03 07:21:42;;;;;;;5.25;1.58;;;;;;;;;;5021900;28;20112;-67
2024/02/03 07:24:07;;;;;;;4.30;1.40;;;;;;;;;;5024564;28;20129;-68
2024/02/03 07:26:33;;;;;;;3.97;1.20;;;;;;;;;;5016918;28;20121;-67
2024/02/03 07:28:58;;;;;;;2.40;1.15;;;;;;;;;;5015607;28;20112;-68
2024/02/03 07:31:28;;;;;;;2.83;1.40;;;;;;;;;;5002523;28;20038;-67
2024/02/03 07:33:54;;;;;;;2.30;1.10;;;;;;;;;;4979100;28;20076;-67
2024/02/03 07:36:21;;;;;;;3.65;1.30;;;;;;;;;;5019205;28;20069;-68
2024/02/03 07:38:46;;;;;;;4.18;1.27;;;;;;;;;;5018044;28;20041;-68
2024/02/03 07:41:14;;;;;;;2.72;1.30;;;;;;;;;;5020298;28;20078;-69
2024/02/03 07:43:39;;;;;;;1.98;1.00;;;;;;;;;;5019409;28;20039;-67
2024/02/03 07:46:04;;;;;;;3.17;1.27;;;;;;;;;;5024019;28;20496;-67
2024/02/03 07:48:29;;;;;;;2.30;1.15;;;;;;;;;;5016380;28;20053;-67
2024/02/03 07:50:55;;;;;;;2.55;1.17;;;;;;;;;;5010117;28;20030;-67
2024/02/03 07:53:20;;;;;;;4.32;1.35;;;;;;;;;;5010574;28;20045;-68
2024/02/03 07:55:45;;;;;;;1.83;1.08;;;;;;;;;;5016473;28;20034;-68
2024/02/03 07:58:11;;;;;;;2.20;1.00;;;;;;;;;;5014255;28;20033;-68
2024/02/03 08:00:36;;;;;;;5.45;1.30;;;;;;;;;;5006861;28;20046;-70
2024/02/03 08:03:02;;;;;;;3.03;1.38;;;;;;;;;;5014088;28;20033;-70
2024/02/03 08:05:27;;;;;;;4.65;0.95;;;;;;;;;;5017079;28;20040;-70
2024/02/03 08:07:53;;;;;;;3.47;1.27;;;;;;;;;;5007815;28;20074;-70
2024/02/03 08:10:18;;;;;;;1.80;1.00;;;;;;;;;;5006484;28;20057;-70
2024/02/03 08:12:43;;;;;;;2.40;1.30;;;;;;;;;;5012065;28;20373;-70
2024/02/03 08:15:09;;;;;;;3.40;1.25;;;;;;;;;;5019345;28;20478;-68
2024/02/03 08:17:34;;;;;;;3.08;1.20;;;;;;;;;;5025795;28;20488;-68
2024/02/03 08:19:59;;;;;;;3.63;1.20;;;;;;;;;;5018775;28;20394;-68
2024/02/03 08:22:24;;;;;;;9.80;6.50;;;;;;;;;;5003374;28;20056;-68
2024/02/03 08:24:50;;;;;;;3.35;1.00;;;;;;;;;;5014959;28;20037;-67
2024/02/03 08:27:15;;;;;;;1.80;1.13;;;;;;;;;;5002398;28;20036;-68
2024/02/03 08:29:41;;;;;;;3.40;1.38;;;;;;;;;;5022578;28;20041;-68
2024/02/03 08:32:06;;;;;;;3.15;1.08;;;;;;;;;;5029282;28;20470;-67
2024/02/03 08:34:31;;;;;;;1.90;0.90;;;;;;;;;;5023031;28;20102;-67
2024/02/03 08:36:57;;;;;;;1.60;0.88;;;;;;;;;;5018299;28;20045;-67
2024/02/03 08:39:22;;;;;;;2.35;1.20;;;;;;;;;;5019279;28;20053;-67
2024/02/03 08:41:48;;;;;;;1.98;1.05;;;;;;;;;;5009324;28;20029;-67
2024/02/03 08:44:13;;;;;;;3.67;1.00;;;;;;;;;;5021117;28;20046;-68
2024/02/03 08:46:38;;;;;;;1.55;0.95;;;;;;;;;;5018282;28;20049;-68
2024/02/03 08:49:04;;;;;;;1.92;0.93;;;;;;;;;;5017665;28;20029;-68
2024/02/03 08:51:29;;;;;;;2.38;1.00;;;;;;;;;;5017100;28;20116;-67
2024/02/03 08:53:55;;;;;;;1.52;0.90;;;;;;;;;;5018328;28;20088;-67
2024/02/03 08:56:21;;;;;;;1.80;0.90;;;;;;;;;;5018355;28;20038;-67
2024/02/03 08:58:47;;;;;;;4.10;1.10;;;;;;;;;;5018532;28;20104;-68
2024/02/03 09:01:12;;;;;;;2.80;1.00;;;;;;;;;;5019722;28;20046;-68
2024/02/03 09:03:37;;;;;;;2.00;0.98;;;;;;;;;;5016497;28;20041;-67
2024/02/03 09:06:03;;;;;;;5.85;0.95;;;;;;;;;;5013891;28;20065;-68
2024/02/03 09:08:28;;;;;;;1.88;0.80;;;;;;;;;;5021133;28;20103;-67
2024/02/03 09:10:55;;;;;;;2.25;1.08;;;;;;;;;;5016631;28;20091;-68
2024/02/03 09:13:21;;;;;;;1.52;0.88;;;;;;;;;;5009778;28;20026;-67
2024/02/03 09:15:46;;;;;;;1.52;0.80;;;;;;;;;;5009233;28;20046;-67
2024/02/03 09:18:12;;;;;;;2.17;0.85;;;;;;;;;;5021387;28;20056;-69
2024/02/03 09:20:37;;;;;;;1.98;1.05;;;;;;;;;;5010113;28;20081;-68
2024/02/03 09:23:02;;;;;;;2.10;0.88;;;;;;;;;;5014936;28;20034;-67
2024/02/03 09:25:28;;;;;;;2.15;0.90;;;;;;;;;;5018610;28;20073;-68
2024/02/03 09:27:53;;;;;;;1.27;0.75;;;;;;;;;;5019007;28;20560;-68
2024/02/03 09:30:18;;;;;;;2.00;0.90;;;;;;;;;;5016838;28;20777;-68
2024/02/03 09:32:44;;;;;;;2.60;0.95;;;;;;;;;;5019702;28;20045;-68
2024/02/03 09:35:09;;;;;;;4.50;1.23;;;;;;;;;;5014413;28;20041;-68
2024/02/03 09:37:35;;;;;;;1.98;0.90;;;;;;;;;;5009401;28;20045;-68
2024/02/03 09:40:00;;;;;;;1.88;0.70;;;;;;;;;;5017959;28;20076;-67
2024/02/03 09:42:26;;;;;;;4.72;0.90;;;;;;;;;;5013993;28;20034;-68
2024/02/03 09:44:51;;;;;;;2.70;0.88;;;;;;;;;;5017985;28;20041;-67
2024/02/03 09:47:17;;;;;;;1.92;0.80;;;;;;;;;;5004424;28;20050;-69
2024/02/03 09:49:43;;;;;;;1.10;0.70;;;;;;;;;;5007335;28;20507;-68
2024/02/03 09:52:14;;;;;;;3.28;0.93;;;;;;;;;;5018980;28;20481;-68
2024/02/03 09:54:46;;;;;;;4.05;0.90;;;;;;;;;;4998696;28;20039;-70
2024/02/03 09:57:12;;;;;;;4.00;1.00;;;;;;;;;;4990964;28;20064;-70
2024/02/03 09:59:38;;;;;;;1.45;0.75;;;;;;;;;;5004062;28;20494;-70
2024/02/03 10:02:03;;;;;;;2.60;0.70;;;;;;;;;;5013332;28;20029;-70
2024/02/03 10:04:38;;;;;;;2.80;1.23;;;;;;;;;;5013946;28;20034;-69
2024/02/03 10:07:04;;;;;;;4.13;0.88;;;;;;;;;;5017830;28;20048;-70
2024/02/03 10:09:29;;;;;;;1.13;0.60;;;;;;;;;;5008062;28;20121;-71
2024/02/03 10:11:55;;;;;;;2.92;0.77;;;;;;;;;;5019684;28;20034;-70
2024/02/03 10:14:21;;;;;;;1.45;0.93;;;;;;;;;;5013361;28;20037;-67
2024/02/03 10:16:49;;;;;;;2.33;1.00;;;;;;;;;;5025319;28;20129;-67
2024/02/03 10:19:14;;;;;;;1.77;0.80;;;;;;;;;;5019559;28;20389;-67
2024/02/03 10:21:40;;;;;;;2.53;0.77;;;;;;;;;;5020525;28;20034;-68
2024/02/03 10:24:06;;;;;;;3.50;1.05;;;;;;;;;;5015125;28;20050;-67
2024/02/03 10:26:31;;;;;;;3.58;0.90;;;;;;;;;;5018245;28;20125;-67
2024/02/03 10:28:56;;;;;;;2.53;1.23;;;;;;;;;;5027661;28;20041;-67
2024/02/03 10:31:23;;;;;;;2.80;1.17;;;;;;;;;;5022251;28;20477;-67
2024/02/03 10:33:48;;;;;;;2.03;0.80;;;;;;;;;;5020331;28;20068;-67
2024/02/03 10:36:13;;;;;;;4.45;1.23;;;;;;;;;;5014098;28;20030;-67
2024/02/03 10:38:39;;;;;;;3.00;0.90;;;;;;;;;;5024341;28;20045;-67
2024/02/03 10:41:09;;;;;;;1.42;0.70;;;;;;;;;;5021152;28;20038;-67
2024/02/03 10:43:37;;;;;;;1.67;0.75;;;;;;;;;;5023168;28;20045;-67
2024/02/03 10:46:05;;;;;;;1.83;0.80;;;;;;;;;;5014494;28;20048;-67
2024/02/03 10:48:32;;;;;;;2.78;0.90;;;;;;;;;;5015212;28;20647;-68
2024/02/03 10:51:01;;;;;;;1.95;0.80;;;;;;;;;;5007916;28;20041;-67
2024/02/03 10:53:31;;;;;;;2.65;0.80;;;;;;;;;;5009682;28;20061;-67
2024/02/03 10:56:05;;;;;;;2.53;0.68;;;;;;;;;;5002105;28;20065;-67
2024/02/03 10:58:32;;;;;;;2.00;0.80;;;;;;;;;;5000000;28;20053;-68
2024/02/03 11:00:59;;;;;;;2.15;0.90;;;;;;;;;;5010627;28;20071;-67
2024/02/03 11:03:24;;;;;;;2.65;0.80;;;;;;;;;;5028542;28;20424;-68
2024/02/03 11:05:53;;;;;;;2.30;0.80;;;;;;;;;;5003357;28;20045;-67
2024/02/03 11:08:21;;;;;;;1.65;0.68;;;;;;;;;;5017381;28;20064;-68
2024/02/03 11:10:50;;;;;;;1.73;0.75;;;;;;;;;;5016327;28;20393;-67
2024/02/03 11:13:19;;;;;;;1.33;0.80;;;;;;;;;;5016982;28;20069;-67
2024/02/03 11:15:44;;;;;;;2.15;0.90;;;;;;;;;;5008416;28;20025;-67
2024/02/03 11:18:16;;;;;;;2.80;1.17;;;;;;;;;;5018374;28;20102;-67
2024/02/03 11:20:41;;;;;;;1.85;0.80;;;;;;;;;;5023933;28;20502;-68
2024/02/03 11:23:14;;;;;;;4.53;0.90;;;;;;;;;;5026869;28;20065;-67
2024/02/03 11:25:44;;;;;;;2.80;1.17;;;;;;;;;;5026087;28;20427;-67
2024/02/03 11:28:10;;;;;;;1.60;0.70;;;;;;;;;;5026516;28;20494;-67
2024/02/03 11:30:35;;;;;;;3.33;0.93;;;;;;;;;;5021947;28;20084;-67
2024/02/03 11:33:01;;;;;;;2.97;1.10;;;;;;;;;;5022081;28;20465;-67
2024/02/03 11:35:26;;;;;;;1.85;0.90;;;;;;;;;;5011168;28;20520;-67
2024/02/03 11:37:51;;;;;;;4.20;1.02;;;;;;;;;;5019006;28;20469;-67
2024/02/03 11:40:17;;;;;;;2.00;0.75;;;;;;;;;;5019333;28;20180;-67
2024/02/03 11:42:43;;;;;;;3.70;1.00;;;;;;;;;;5020001;28;20132;-67
2024/02/03 11:45:16;;;;;;;2.17;1.00;;;;;;;;;;5012119;28;20116;-68
2024/02/03 11:47:42;;;;;;;2.33;0.95;;;;;;;;;;5010829;28;20033;-67
2024/02/03 11:50:08;;;;;;;2.75;0.80;;;;;;;;;;5024631;28;20041;-67
2024/02/03 11:52:34;;;;;;;2.22;1.02;;;;;;;;;;5021445;28;20044;-67
2024/02/03 11:54:59;;;;;;;3.63;0.80;;;;;;;;;;5025767;28;20033;-67
2024/02/03 11:57:25;;;;;;;1.90;0.90;;;;;;;;;;5027872;28;20045;-67
2024/02/03 12:00:05;;;;;;;2.30;1.00;;;;;;;;;;4993552;28;20040;-67
2024/02/03 12:02:33;;;;;;;2.45;1.00;;;;;;;;;;5016049;28;20048;-69
2024/02/03 12:04:59;;;;;;;1.90;0.80;;;;;;;;;;5018714;28;20165;-69
2024/02/03 12:07:24;;;;;;;1.60;0.80;;;;;;;;;;5001708;28;20516;-69
2024/02/03 12:09:50;;;;;;;2.65;1.17;;;;;;;;;;5019470;28;20038;-69
2024/02/03 12:12:15;;;;;;;2.65;1.10;;;;;;;;;;5021683;28;20625;-69
2024/02/03 12:14:40;;;;;;;2.35;1.27;;;;;;;;;;5003561;28;20042;-67
2024/02/03 12:17:06;;;;;;;3.30;0.93;;;;;;;;;;5019546;28;20478;-67
2024/02/03 12:19:31;;;;;;;2.47;1.10;;;;;;;;;;5020255;28;20072;-68
2024/02/03 12:21:57;;;;;;;2.65;1.05;;;;;;;;;;5019575;28;20026;-67
2024/02/03 12:24:23;;;;;;;1.85;0.85;;;;;;;;;;5011752;28;20046;-67
2024/02/03 12:26:48;;;;;;;2.17;1.20;;;;;;;;;;5023547;28;20042;-67
2024/02/03 12:29:14;;;;;;;1.77;0.80;;;;;;;;;;5028375;28;20040;-68
2024/02/03 12:31:40;;;;;;;2.33;1.00;;;;;;;;;;5025719;28;20504;-68
2024/02/03 12:34:05;;;;;;;2.42;1.00;;;;;;;;;;5025487;28;20045;-68
2024/02/03 12:36:30;;;;;;;2.25;1.00;;;;;;;;;;5017453;28;20074;-67
2024/02/03 12:38:59;;;;;;;1.80;0.80;;;;;;;;;;5025441;28;20096;-67
2024/02/03 12:41:25;;;;;;;1.00;0.65;;;;;;;;;;5018191;28;20042;-67
2024/02/03 12:43:50;;;;;;;1.85;1.00;;;;;;;;;;5023909;28;20091;-68
2024/02/03 12:46:16;;;;;;;3.97;1.00;;;;;;;;;;5024992;28;20124;-67
2024/02/03 12:48:43;;;;;;;2.38;0.80;;;;;;;;;;5013965;28;20168;-66
2024/02/03 12:51:09;;;;;;;1.65;0.88;;;;;;;;;;5015653;28;20604;-67
2024/02/03 12:53:34;;;;;;;1.83;0.82;;;;;;;;;;5016903;28;20134;-67
2024/02/03 12:56:00;;;;;;;1.75;0.98;;;;;;;;;;5021592;28;20072;-67
2024/02/03 12:58:26;;;;;;;6.05;0.98;;;;;;;;;;5022491;28;20030;-67
2024/02/03 13:00:51;;;;;;;2.67;0.93;;;;;;;;;;5013776;28;20121;-67
2024/02/03 13:03:17;;;;;;;1.75;0.95;;;;;;;;;;5017900;28;20042;-67
2024/02/03 13:05:45;;;;;;;1.80;0.95;;;;;;;;;;5019599;28;20040;-67
2024/02/03 13:08:11;;;;;;;1.40;0.80;;;;;;;;;;5023557;28;20037;-67
2024/02/03 13:10:37;;;;;;;1.85;0.90;;;;;;;;;;5025138;28;20038;-67
2024/02/03 13:13:03;;;;;;;2.45;1.20;;;;;;;;;;5025499;28;20604;-67
2024/02/03 13:15:28;;;;;;;2.35;1.17;;;;;;;;;;5030498;28;20069;-67
2024/02/03 13:17:53;;;;;;;1.13;0.60;;;;;;;;;;5025894;28;20045;-67
2024/02/03 13:20:21;;;;;;;3.00;1.00;;;;;;;;;;5027307;28;20060;-67
2024/02/03 13:22:47;;;;;;;3.35;1.40;;;;;;;;;;5019854;28;20409;-68
2024/02/03 13:25:12;;;;;;;2.17;1.23;;;;;;;;;;5022175;28;20060;-67
2024/02/03 13:27:38;;;;;;;1.20;0.75;;;;;;;;;;5027574;28;20059;-67
2024/02/03 13:30:06;;;;;;;2.10;0.88;;;;;;;;;;5029857;28;20539;-67
2024/02/03 13:32:31;;;;;;;2.88;1.00;;;;;;;;;;5025120;28;20037;-67
2024/02/03 13:34:57;;;;;;;2.78;1.25;;;;;;;;;;5018246;28;20624;-67
2024/02/03 13:37:22;;;;;;;1.80;1.00;;;;;;;;;;5027394;28;20049;-67
2024/02/03 13:39:48;;;;;;;3.08;1.15;;;;;;;;;;5026820;28;20077;-67
2024/02/03 13:42:15;;;;;;;1.98;0.95;;;;;;;;;;5011711;28;20037;-68
2024/02/03 13:44:40;;;;;;;1.98;0.98;;;;;;;;;;5020840;28;20083;-67
2024/02/03 13:47:06;;;;;;;3.20;1.10;;;;;;;;;;5029514;28;20057;-68
2024/02/03 13:49:31;;;;;;;2.80;1.50;;;;;;;;;;5020233;28;20038;-67
2024/02/03 13:51:56;;;;;;;2.88;1.30;;;;;;;;;;5019735;28;20052;-67
2024/02/03 13:54:22;;;;;;;3.63;1.85;;;;;;;;;;5021867;28;20037;-68
2024/02/03 13:56:47;;;;;;;6.88;2.90;;;;;;;;;;5023527;28;20056;-67
2024/02/03 13:59:13;;;;;;;5.30;2.78;;;;;;;;;;5026258;28;20044;-68
2024/02/03 14:01:39;;;;;;;3.45;1.92;;;;;;;;;;5003679;28;20050;-70
2024/02/03 14:04:04;;;;;;;3.03;1.90;;;;;;;;;;5016623;28;20033;-69
2024/02/03 14:06:30;;;;;;;7.10;1.75;;;;;;;;;;5015718;28;20048;-70
2024/02/03 14:08:55;;;;;;;2.03;1.20;;;;;;;;;;5018256;28;20147;-69
2024/02/03 14:11:22;;;;;;;2.10;1.05;;;;;;;;;;5014794;28;20057;-70
2024/02/03 14:13:47;;;;;;;3.65;1.15;;;;;;;;;;5017533;28;20490;-67
2024/02/03 14:16:16;;;;;;;2.50;1.27;;;;;;;;;;5024509;28;20038;-68
2024/02/03 14:18:42;;;;;;;2.88;1.30;;;;;;;;;;5023156;28;20041;-67
2024/02/03 14:21:08;;;;;;;3.58;1.70;;;;;;;;;;5028227;28;20397;-67
2024/02/03 14:23:34;;;;;;;3.55;1.45;;;;;;;;;;5018638;28;20092;-67
2024/02/03 14:26:00;;;;;;;2.65;1.23;;;;;;;;;;5023017;28;20022;-67
2024/02/03 14:28:26;;;;;;;4.15;1.20;;;;;;;;;;5011433;28;20049;-68
2024/02/03 14:30:51;;;;;;;3.10;1.00;;;;;;;;;;5019996;28;20033;-67